Time;durP1;ratioP1;P1;durP2;ratioP2;P2;SDS_P1;SDS_P2;PMS_P1;PMS_P2;Temp;Humidity;BMP_temperature;BMP_pressure;BME280_temperature;BME280_humidity;BME280_pressure;Samples;Min_cycle;Max_cycle;Signal;HPM_P1;HPM_P2
2022/08/28 00:00:39;;;;;;;2.63;1.38;;;26.60;96.70;;;;;;5041561;28;20123;-80
2022/08/28 00:03:08;;;;;;;2.95;1.40;;;26.40;96.70;;;;;;5019958;28;20045;-80
2022/08/28 00:05:38;;;;;;;5.35;1.60;;;26.40;96.70;;;;;;5034109;28;20463;-80
2022/08/28 00:08:09;;;;;;;3.92;1.80;;;26.50;96.70;;;;;;5006790;28;20050;-79
2022/08/28 00:10:40;;;;;;;4.05;1.73;;;26.50;96.70;;;;;;5016099;28;20049;-79
2022/08/28 00:13:14;;;;;;;3.38;1.60;;;26.50;96.70;;;;;;5020129;28;20045;-79
2022/08/28 00:15:42;;;;;;;3.30;1.55;;;26.50;96.70;;;;;;5002063;28;20054;-79
2022/08/28 00:18:10;;;;;;;2.75;1.70;;;26.40;96.70;;;;;;4995001;28;20046;-79
2022/08/28 00:20:38;;;;;;;1.70;1.52;;;26.40;96.70;;;;;;5015579;28;20107;-79
2022/08/28 00:23:08;;;;;;;3.83;1.85;;;26.40;96.70;;;;;;5018970;28;20499;-78
2022/08/28 00:25:36;;;;;;;4.70;1.90;;;26.20;96.70;;;;;;5001877;28;20650;-78
2022/08/28 00:28:11;;;;;;;3.42;1.83;;;26.00;96.70;;;;;;5018163;28;20080;-80
2022/08/28 00:31:05;;;;;;;1.98;1.42;;;25.90;96.70;;;;;;5013997;28;20045;-79
2022/08/28 00:33:34;;;;;;;2.35;1.60;;;26.00;96.70;;;;;;5023364;28;20046;-78
2022/08/28 00:36:03;;;;;;;3.50;1.65;;;26.00;96.70;;;;;;5022704;28;20068;-78
2022/08/28 00:38:33;;;;;;;2.67;1.90;;;26.00;96.70;;;;;;5038274;28;20058;-79
2022/08/28 00:41:02;;;;;;;2.00;1.75;;;26.00;96.70;;;;;;5016229;28;20053;-79
2022/08/28 00:43:35;;;;;;;3.60;1.90;;;25.90;96.70;;;;;;5037543;28;20434;-79
2022/08/28 00:46:05;;;;;;;3.33;1.70;;;25.90;96.70;;;;;;5002838;28;20054;-79
2022/08/28 00:48:33;;;;;;;1.70;1.60;;;25.90;96.70;;;;;;5024842;28;20095;-79
2022/08/28 00:53:52;;;;;;;2.97;1.95;;;26.00;96.70;;;;;;5024444;28;20076;-78
2022/08/28 00:56:26;;;;;;;3.78;1.95;;;26.00;96.70;;;;;;5001566;28;20138;-78
2022/08/28 00:58:57;;;;;;;2.45;1.38;;;26.00;96.70;;;;;;5014700;28;20045;-78
2022/08/28 01:01:25;;;;;;;1.70;1.50;;;25.90;96.70;;;;;;5022099;28;20057;-78
2022/08/28 01:03:53;;;;;;;1.77;1.60;;;25.80;96.70;;;;;;5017505;28;20146;-79
2022/08/28 01:06:27;;;;;;;2.80;1.92;;;25.80;96.70;;;;;;5025416;28;20066;-78
2022/08/28 01:08:57;;;;;;;2.63;1.80;;;25.80;96.70;;;;;;5024316;28;20052;-78
2022/08/28 01:11:27;;;;;;;4.40;1.80;;;25.80;96.70;;;;;;5018824;28;20454;-78
2022/08/28 01:13:57;;;;;;;3.92;2.03;;;25.90;96.70;;;;;;5000918;28;20400;-78
2022/08/28 01:16:30;;;;;;;3.85;1.65;;;25.80;96.70;;;;;;5018665;28;20138;-79
2022/08/28 01:19:02;;;;;;;3.67;1.70;;;25.70;96.70;;;;;;5010906;28;20487;-79
2022/08/28 01:21:36;;;;;;;3.75;1.50;;;25.60;96.70;;;;;;5002816;28;20145;-78
2022/08/28 01:24:10;;;;;;;3.15;1.55;;;25.60;96.70;;;;;;5019170;28;20053;-78
2022/08/28 01:26:38;;;;;;;2.65;1.60;;;25.60;96.70;;;;;;5018142;28;20425;-78
2022/08/28 01:29:07;;;;;;;2.95;1.70;;;25.70;96.70;;;;;;5016868;28;20148;-78
2022/08/28 01:31:36;;;;;;;3.13;1.83;;;25.70;96.70;;;;;;5022354;28;20049;-79
2022/08/28 01:34:05;;;;;;;3.90;1.67;;;25.70;96.70;;;;;;5012976;28;20045;-79
2022/08/28 01:36:33;;;;;;;2.97;1.80;;;25.60;96.70;;;;;;5021917;28;20083;-78
2022/08/28 01:39:07;;;;;;;1.73;1.58;;;25.60;96.70;;;;;;5018554;28;21014;-78
2022/08/28 01:41:41;;;;;;;3.38;1.80;;;25.60;96.70;;;;;;5021414;28;20056;-78
2022/08/28 01:44:09;;;;;;;5.15;1.65;;;25.60;96.70;;;;;;5016357;28;20038;-78
2022/08/28 01:46:39;;;;;;;3.55;2.25;;;25.50;96.70;;;;;;5015928;28;20044;-77
2022/08/28 01:49:10;;;;;;;5.05;1.75;;;25.40;96.70;;;;;;5020108;28;20041;-78
2022/08/28 01:51:40;;;;;;;2.42;1.80;;;25.50;96.70;;;;;;5020842;28;20077;-78
2022/08/28 01:54:10;;;;;;;6.40;1.85;;;25.50;96.70;;;;;;4993746;28;20278;-78
2022/08/28 01:56:40;;;;;;;1.67;1.58;;;25.60;96.70;;;;;;5024345;28;20132;-78
2022/08/28 01:59:11;;;;;;;2.50;1.73;;;25.60;96.70;;;;;;5018802;28;20551;-78
2022/08/28 02:01:41;;;;;;;4.18;1.65;;;25.70;96.70;;;;;;5025040;28;20049;-79
2022/08/28 02:04:10;;;;;;;2.05;1.45;;;25.60;96.70;;;;;;5005778;28;20091;-78
2022/08/28 02:06:38;;;;;;;3.22;1.60;;;25.60;96.70;;;;;;5031982;28;20061;-80
2022/08/28 02:09:07;;;;;;;1.75;1.65;;;25.60;96.70;;;;;;5025619;28;20048;-78
2022/08/28 02:11:43;;;;;;;2.70;1.60;;;25.50;96.70;;;;;;5041220;28;20140;-78
2022/08/28 02:14:15;;;;;;;3.72;1.73;;;25.50;96.70;;;;;;5070538;28;20059;-78
2022/08/28 02:16:43;;;;;;;3.17;1.80;;;25.50;96.70;;;;;;5069397;28;20140;-80
2022/08/28 02:19:11;;;;;;;3.47;1.52;;;25.40;96.70;;;;;;5034761;28;20120;-78
2022/08/28 02:21:39;;;;;;;6.72;2.42;;;25.40;96.70;;;;;;5040382;28;20049;-78
2022/08/28 02:24:08;;;;;;;2.85;1.90;;;25.30;96.70;;;;;;5040638;28;20041;-78
2022/08/28 02:26:36;;;;;;;2.78;1.80;;;25.40;96.70;;;;;;5043321;28;20049;-78
2022/08/28 02:29:06;;;;;;;3.03;1.83;;;25.50;96.70;;;;;;5036785;28;20036;-78
2022/08/28 02:31:34;;;;;;;3.38;2.05;;;25.30;96.70;;;;;;5036663;28;20047;-77
2022/08/28 02:34:03;;;;;;;2.13;1.50;;;25.20;96.70;;;;;;5039576;28;20065;-78
2022/08/28 02:36:32;;;;;;;2.85;1.58;;;25.30;96.70;;;;;;5040018;28;20165;-79
2022/08/28 02:39:01;;;;;;;3.13;1.40;;;25.30;96.70;;;;;;5037669;28;20052;-79
2022/08/28 02:41:30;;;;;;;3.05;1.55;;;25.30;96.70;;;;;;5038138;28;20122;-79
2022/08/28 02:43:58;;;;;;;2.40;1.45;;;25.30;96.70;;;;;;5042547;28;20095;-78
2022/08/28 02:46:28;;;;;;;3.53;1.27;;;25.20;96.70;;;;;;5042923;28;20129;-78
2022/08/28 02:48:56;;;;;;;1.98;1.40;;;25.20;96.70;;;;;;5042406;28;20041;-78
2022/08/28 02:51:24;;;;;;;2.80;1.30;;;25.20;96.70;;;;;;5036138;28;20135;-79
2022/08/28 02:53:53;;;;;;;3.17;1.55;;;25.20;96.70;;;;;;5040967;28;20127;-78
2022/08/28 02:56:21;;;;;;;1.73;1.42;;;25.20;96.70;;;;;;5041863;28;20041;-78
2022/08/28 02:58:49;;;;;;;2.15;1.77;;;25.30;96.70;;;;;;5034576;28;20048;-78
2022/08/28 03:01:20;;;;;;;6.18;2.85;;;25.30;96.70;;;;;;5037103;28;20127;-78
2022/08/28 03:03:50;;;;;;;9.82;6.97;;;25.20;96.70;;;;;;5027060;28;20148;-78
2022/08/28 03:06:19;;;;;;;21.00;12.52;;;25.20;96.70;;;;;;5020364;28;20076;-78
2022/08/28 03:08:47;;;;;;;19.65;12.98;;;25.10;96.70;;;;;;5043535;28;20491;-78
2022/08/28 03:11:16;;;;;;;14.80;8.30;;;25.10;96.70;;;;;;5042861;28;20488;-78
2022/08/28 03:13:44;;;;;;;12.50;7.57;;;25.20;96.70;;;;;;5036727;28;20041;-78
2022/08/28 03:16:12;;;;;;;13.68;7.88;;;25.20;96.70;;;;;;5039734;28;20054;-78
2022/08/28 03:18:41;;;;;;;26.73;15.00;;;25.20;96.70;;;;;;5035049;28;20052;-78
2022/08/28 03:21:11;;;;;;;31.80;17.48;;;25.20;96.70;;;;;;5037601;28;20531;-79
2022/08/28 03:23:39;;;;;;;26.58;15.55;;;25.20;96.70;;;;;;5034569;28;20042;-78
2022/08/28 03:26:09;;;;;;;16.50;10.38;;;25.20;96.70;;;;;;5038121;28;20120;-78
2022/08/28 03:28:39;;;;;;;11.02;5.22;;;25.10;96.70;;;;;;5041920;28;20052;-78
2022/08/28 03:31:09;;;;;;;4.90;3.53;;;25.00;96.70;;;;;;5042879;28;20052;-78
2022/08/28 03:33:37;;;;;;;4.15;2.50;;;25.10;96.70;;;;;;5023322;28;20092;-78
2022/08/28 03:36:13;;;;;;;4.57;1.98;;;25.10;96.70;;;;;;5034567;28;20075;-78
2022/08/28 03:38:41;;;;;;;4.20;1.38;;;24.90;96.70;;;;;;5035386;28;20053;-78
2022/08/28 03:41:10;;;;;;;2.35;1.58;;;25.00;96.70;;;;;;5038096;28;20052;-78
2022/08/28 03:43:38;;;;;;;2.25;1.40;;;24.90;96.70;;;;;;5037429;28;20131;-78
2022/08/28 03:46:09;;;;;;;3.67;1.83;;;24.90;96.70;;;;;;5043048;28;20517;-78
2022/08/28 03:48:38;;;;;;;2.22;1.33;;;24.90;96.70;;;;;;5030799;28;20046;-78
2022/08/28 03:51:15;;;;;;;2.92;1.40;;;24.90;96.70;;;;;;5043461;28;20045;-77
2022/08/28 03:53:45;;;;;;;1.63;1.20;;;24.80;96.70;;;;;;5035535;28;20052;-78
2022/08/28 03:56:17;;;;;;;2.47;1.20;;;24.80;96.70;;;;;;5041019;28;20044;-78
2022/08/28 03:58:45;;;;;;;1.85;1.33;;;24.70;96.70;;;;;;5031181;28;20099;-78
2022/08/28 04:01:14;;;;;;;2.58;1.45;;;24.60;96.70;;;;;;5034429;28;20048;-78
2022/08/28 04:03:43;;;;;;;2.97;1.52;;;24.70;96.70;;;;;;5034469;28;20128;-78
2022/08/28 04:06:13;;;;;;;3.83;1.58;;;24.70;96.70;;;;;;5019261;28;20142;-78
2022/08/28 04:08:42;;;;;;;2.60;1.40;;;24.70;96.70;;;;;;5016728;28;20531;-78
2022/08/28 04:11:10;;;;;;;2.25;1.40;;;24.60;96.70;;;;;;5015724;28;20045;-78
2022/08/28 04:13:38;;;;;;;3.33;1.55;;;24.60;96.70;;;;;;5012241;28;20092;-78
2022/08/28 04:16:09;;;;;;;2.25;1.42;;;24.70;96.70;;;;;;5016539;28;20045;-78
2022/08/28 04:18:38;;;;;;;4.07;1.88;;;24.70;96.70;;;;;;5016534;28;20065;-78
2022/08/28 04:21:09;;;;;;;1.70;1.42;;;24.60;96.70;;;;;;4999666;28;20056;-78
2022/08/28 04:23:43;;;;;;;2.97;1.80;;;24.60;96.70;;;;;;5020034;28;20038;-77
2022/08/28 04:26:15;;;;;;;4.05;1.35;;;24.60;96.70;;;;;;5004249;28;20049;-77
2022/08/28 04:28:44;;;;;;;2.65;1.67;;;24.50;96.70;;;;;;5016677;28;20057;-78
2022/08/28 04:31:12;;;;;;;1.63;1.42;;;24.50;96.70;;;;;;5022629;28;20128;-78
2022/08/28 04:33:41;;;;;;;3.65;1.92;;;24.50;96.70;;;;;;5015330;28;20046;-78
2022/08/28 04:36:11;;;;;;;1.90;1.42;;;24.50;96.70;;;;;;5012542;28;20053;-79
2022/08/28 04:38:42;;;;;;;2.85;1.80;;;24.50;96.70;;;;;;5021744;28;20087;-77
2022/08/28 04:41:14;;;;;;;5.63;1.52;;;24.60;96.70;;;;;;4996858;28;20542;-80
2022/08/28 04:43:43;;;;;;;3.60;1.50;;;24.60;96.70;;;;;;5018225;28;20064;-78
2022/08/28 04:46:13;;;;;;;2.95;1.73;;;24.50;96.70;;;;;;5017487;28;20047;-78
2022/08/28 04:48:42;;;;;;;2.53;1.42;;;24.60;96.70;;;;;;5019252;28;20152;-78
2022/08/28 04:51:13;;;;;;;3.80;1.45;;;24.70;96.70;;;;;;5011405;28;20153;-79
2022/08/28 04:53:43;;;;;;;3.13;1.80;;;24.80;96.70;;;;;;5015571;28;20052;-78
2022/08/28 04:56:13;;;;;;;5.40;1.65;;;24.80;96.70;;;;;;5019520;28;20526;-78
2022/08/28 04:58:43;;;;;;;4.40;1.70;;;24.90;96.70;;;;;;5004181;28;20053;-79
2022/08/28 05:01:14;;;;;;;4.93;1.75;;;24.90;96.70;;;;;;5010263;28;20152;-78
2022/08/28 05:03:42;;;;;;;2.35;1.80;;;25.00;96.70;;;;;;5019723;28;20049;-77
2022/08/28 05:06:12;;;;;;;2.28;1.40;;;25.00;96.70;;;;;;5018194;28;20046;-80
2022/08/28 05:08:41;;;;;;;3.88;1.83;;;25.10;96.70;;;;;;5016269;28;20056;-79
2022/08/28 05:11:13;;;;;;;1.50;1.30;;;25.10;96.70;;;;;;5014360;28;20037;-78
2022/08/28 05:14:01;;;;;;;5.88;1.50;;;25.10;96.70;;;;;;5016867;28;20522;-78
2022/08/28 05:16:29;;;;;;;3.92;1.80;;;25.10;96.70;;;;;;5016511;28;20050;-78
2022/08/28 05:18:59;;;;;;;2.00;1.77;;;25.00;96.70;;;;;;5015014;28;20046;-77
2022/08/28 05:21:27;;;;;;;2.22;1.58;;;24.90;96.70;;;;;;5023289;28;20045;-78
2022/08/28 05:23:57;;;;;;;2.72;1.50;;;25.00;96.70;;;;;;5004250;28;20546;-78
2022/08/28 05:26:28;;;;;;;4.40;2.00;;;25.10;96.70;;;;;;5023913;28;20555;-79
2022/08/28 05:28:58;;;;;;;5.28;1.92;;;25.00;96.70;;;;;;5021663;28;20948;-78
2022/08/28 05:31:28;;;;;;;3.45;1.55;;;25.10;96.70;;;;;;5025377;28;20096;-77
2022/08/28 05:33:57;;;;;;;3.47;1.85;;;25.10;96.70;;;;;;5018165;28;20048;-78
2022/08/28 05:36:27;;;;;;;3.83;1.50;;;25.20;96.70;;;;;;5021973;28;20048;-80
2022/08/28 05:39:01;;;;;;;3.20;1.65;;;25.20;96.70;;;;;;5016022;28;20435;-78
2022/08/28 05:41:31;;;;;;;2.97;1.48;;;25.10;96.70;;;;;;5008728;28;20038;-78
2022/08/28 05:44:01;;;;;;;3.45;1.98;;;25.10;96.70;;;;;;5019220;28;20049;-78
2022/08/28 05:46:30;;;;;;;4.70;2.00;;;25.10;96.70;;;;;;5022474;28;20447;-78
2022/08/28 05:49:01;;;;;;;2.88;1.58;;;25.00;96.70;;;;;;5015043;28;20037;-78
2022/08/28 05:51:35;;;;;;;2.65;1.80;;;25.20;96.70;;;;;;5022930;28;20091;-78
2022/08/28 05:54:03;;;;;;;5.25;3.60;;;25.20;96.70;;;;;;5018096;28;20149;-78
2022/08/28 05:56:35;;;;;;;7.75;4.40;;;25.10;96.70;;;;;;5016788;28;20038;-78
2022/08/28 05:59:05;;;;;;;5.60;4.88;;;25.00;96.70;;;;;;5020336;28;20057;-79
2022/08/28 06:01:35;;;;;;;6.05;4.03;;;25.00;96.70;;;;;;5018825;28;20129;-78
2022/08/28 06:04:07;;;;;;;4.13;3.33;;;25.10;96.70;;;;;;5019368;28;20046;-79
2022/08/28 06:06:38;;;;;;;3.00;2.60;;;25.20;96.70;;;;;;5035181;28;20049;-78
2022/08/28 06:09:09;;;;;;;2.83;2.03;;;25.20;96.70;;;;;;5038751;28;20064;-78
2022/08/28 06:11:40;;;;;;;3.15;1.70;;;25.20;96.70;;;;;;5038387;28;20049;-77
2022/08/28 06:14:14;;;;;;;2.58;1.80;;;25.30;96.70;;;;;;5041653;28;20048;-76
2022/08/28 06:16:47;;;;;;;3.90;1.70;;;25.30;96.70;;;;;;5054477;28;20067;-76
2022/08/28 06:19:16;;;;;;;2.10;1.60;;;25.30;96.70;;;;;;5041473;28;20045;-74
2022/08/28 06:21:55;;;;;;;3.28;1.73;;;25.30;96.70;;;;;;5039800;28;20048;-75
2022/08/28 06:24:23;;;;;;;3.80;1.80;;;25.40;96.70;;;;;;5026065;28;20080;-76
2022/08/28 06:26:53;;;;;;;4.85;1.90;;;25.50;96.70;;;;;;5039524;28;20061;-74
2022/08/28 06:29:26;;;;;;;2.67;1.70;;;25.60;96.70;;;;;;5041456;28;20640;-74
2022/08/28 06:31:55;;;;;;;3.03;1.60;;;25.60;96.70;;;;;;5042852;28;20396;-75
2022/08/28 06:34:24;;;;;;;2.70;1.70;;;25.60;96.70;;;;;;5040343;28;20144;-75
2022/08/28 06:36:52;;;;;;;3.15;1.55;;;25.80;96.70;;;;;;5043002;28;20041;-75
2022/08/28 06:39:21;;;;;;;5.10;1.60;;;25.70;96.70;;;;;;5024330;28;20236;-75
2022/08/28 06:41:49;;;;;;;2.35;1.50;;;25.70;96.70;;;;;;5042731;28;20063;-74
2022/08/28 06:44:20;;;;;;;4.82;2.08;;;25.80;96.70;;;;;;5041098;28;20053;-74
2022/08/28 06:46:50;;;;;;;4.25;1.45;;;25.90;96.70;;;;;;5039976;28;20051;-75
2022/08/28 06:49:19;;;;;;;3.83;2.22;;;25.90;96.70;;;;;;5041536;28;20131;-75
2022/08/28 06:51:47;;;;;;;4.47;2.00;;;25.90;96.70;;;;;;5040693;28;20061;-75
2022/08/28 06:54:16;;;;;;;2.78;1.70;;;25.90;96.70;;;;;;5040847;28;20511;-75
2022/08/28 06:56:49;;;;;;;2.17;1.45;;;25.90;96.70;;;;;;5039447;28;20147;-75
2022/08/28 06:59:19;;;;;;;2.38;1.80;;;25.90;96.70;;;;;;5022542;28;20082;-76
2022/08/28 07:01:48;;;;;;;5.78;2.40;;;25.90;96.70;;;;;;5037759;28;20136;-76
2022/08/28 07:04:16;;;;;;;3.08;1.98;;;26.00;96.70;;;;;;5040763;28;20059;-75
2022/08/28 07:06:48;;;;;;;1.98;1.77;;;26.10;96.70;;;;;;5021695;28;20053;-76
2022/08/28 07:09:22;;;;;;;2.45;1.50;;;26.10;96.70;;;;;;5020983;28;20388;-75
2022/08/28 07:11:50;;;;;;;4.05;1.67;;;26.30;96.70;;;;;;5020610;28;20061;-75
2022/08/28 07:14:20;;;;;;;3.65;1.70;;;26.30;96.70;;;;;;5017553;28;20667;-78
2022/08/28 07:16:49;;;;;;;2.97;1.88;;;26.40;96.70;;;;;;5018531;28;20069;-76
2022/08/28 07:19:18;;;;;;;6.45;1.80;;;26.40;96.70;;;;;;5015248;28;20625;-75
2022/08/28 07:21:47;;;;;;;3.83;2.08;;;26.50;96.70;;;;;;5014681;28;20495;-76
2022/08/28 07:24:15;;;;;;;4.03;2.15;;;26.50;96.70;;;;;;5014728;28;20092;-76
2022/08/28 07:26:45;;;;;;;5.30;1.65;;;26.50;96.70;;;;;;5019812;28;20041;-77
2022/08/28 07:29:14;;;;;;;3.50;2.10;;;26.50;96.70;;;;;;5014066;28;20042;-78
2022/08/28 07:31:45;;;;;;;5.05;1.92;;;26.60;96.70;;;;;;5015532;28;20050;-77
2022/08/28 07:34:16;;;;;;;4.15;1.77;;;26.50;96.70;;;;;;5021903;28;20077;-75
2022/08/28 07:36:45;;;;;;;3.63;1.98;;;26.80;96.70;;;;;;5019740;28;20153;-77
2022/08/28 07:39:14;;;;;;;4.85;2.10;;;26.90;96.70;;;;;;5013511;28;20050;-75
2022/08/28 07:41:42;;;;;;;5.60;2.25;;;26.90;96.70;;;;;;5022810;28;20128;-76
2022/08/28 07:47:04;;;;;;;6.40;2.47;;;27.20;96.70;;;;;;5017849;28;20107;-74
2022/08/28 07:49:34;;;;;;;4.05;2.00;;;27.30;96.70;;;;;;5015736;28;20116;-73
2022/08/28 07:52:03;;;;;;;4.30;1.50;;;27.20;96.70;;;;;;5019622;28;20041;-74
2022/08/28 07:54:31;;;;;;;4.57;1.70;;;27.10;96.70;;;;;;5015028;28;20546;-73
2022/08/28 07:57:00;;;;;;;2.25;1.60;;;27.00;96.70;;;;;;5013526;28;20045;-73
2022/08/28 07:59:28;;;;;;;2.75;1.88;;;27.10;96.70;;;;;;5016159;28;20100;-71
2022/08/28 08:02:05;;;;;;;4.60;1.80;;;27.30;96.70;;;;;;5012973;28;20053;-70
2022/08/28 08:04:47;;;;;;;4.10;1.80;;;27.50;96.70;;;;;;5016936;28;20054;-71
2022/08/28 08:07:16;;;;;;;2.35;1.77;;;27.50;96.70;;;;;;5005910;28;20053;-71
2022/08/28 08:09:47;;;;;;;1.75;1.48;;;27.70;96.70;;;;;;5022234;28;20789;-73
2022/08/28 08:12:16;;;;;;;3.92;1.30;;;27.80;96.70;;;;;;5038141;28;20044;-69
2022/08/28 08:14:48;;;;;;;1.52;1.35;;;27.70;96.70;;;;;;5035350;28;20414;-70
2022/08/28 08:17:18;;;;;;;2.10;1.55;;;27.80;96.70;;;;;;5035035;28;20059;-69
2022/08/28 08:19:47;;;;;;;5.45;1.40;;;27.90;96.70;;;;;;5021701;28;20485;-70
2022/08/28 08:22:16;;;;;;;5.30;1.92;;;28.00;96.70;;;;;;5015196;28;20519;-71
2022/08/28 08:24:44;;;;;;;6.85;2.22;;;28.00;96.70;;;;;;5036636;28;20139;-71
2022/08/28 08:27:12;;;;;;;3.55;1.90;;;28.10;96.70;;;;;;5039713;28;20470;-72
2022/08/28 08:29:41;;;;;;;2.80;1.52;;;28.10;96.70;;;;;;5036570;28;20088;-73
2022/08/28 08:32:10;;;;;;;4.38;1.70;;;28.10;96.70;;;;;;5033507;28;20486;-72
2022/08/28 08:34:41;;;;;;;1.75;1.52;;;28.10;96.70;;;;;;5018795;28;20053;-72
2022/08/28 08:37:12;;;;;;;4.93;1.80;;;28.20;96.70;;;;;;5033196;28;20044;-73
2022/08/28 08:39:41;;;;;;;3.72;1.77;;;28.20;96.70;;;;;;5047388;28;20049;-72
2022/08/28 08:42:21;;;;;;;3.00;1.55;;;28.10;96.70;;;;;;5025862;28;20049;-74
2022/08/28 08:44:51;;;;;;;3.05;1.52;;;28.00;96.70;;;;;;5040338;28;20052;-75
2022/08/28 08:47:25;;;;;;;3.90;1.70;;;28.00;96.70;;;;;;5031820;28;20510;-77
2022/08/28 08:49:57;;;;;;;6.38;2.72;;;28.00;96.70;;;;;;5038851;28;20049;-77
2022/08/28 08:52:37;;;;;;;3.03;2.33;;;27.90;96.70;;;;;;5025985;28;20059;-77
2022/08/28 08:55:25;;;;;;;4.07;1.70;;;28.00;96.70;;;;;;5043512;28;20045;-77
2022/08/28 08:57:58;;;;;;;2.72;1.45;;;28.00;96.70;;;;;;5045182;28;20056;-76
2022/08/28 09:00:27;;;;;;;2.47;1.80;;;28.00;96.70;;;;;;5040213;28;20056;-76
2022/08/28 09:03:02;;;;;;;2.70;1.60;;;28.00;96.70;;;;;;5039317;28;20505;-78
2022/08/28 09:05:44;;;;;;;1.92;1.63;;;27.90;96.70;;;;;;5049325;28;20140;-77
2022/08/28 09:08:24;;;;;;;2.85;1.77;;;28.00;96.70;;;;;;5063645;28;20143;-76
2022/08/28 09:11:01;;;;;;;4.60;1.60;;;28.10;96.70;;;;;;5062549;28;20105;-78
2022/08/28 09:13:41;;;;;;;2.70;1.67;;;28.20;96.70;;;;;;5065085;28;20033;-78
2022/08/28 09:16:19;;;;;;;2.55;1.70;;;28.30;96.70;;;;;;5059809;28;20070;-77
2022/08/28 09:18:49;;;;;;;2.00;1.20;;;28.40;96.70;;;;;;5046682;28;20056;-77
2022/08/28 09:21:30;;;;;;;2.15;1.42;;;28.50;96.70;;;;;;5058669;28;20115;-77
2022/08/28 09:24:01;;;;;;;3.30;1.80;;;28.50;96.70;;;;;;5040334;28;20078;-78
2022/08/28 09:26:33;;;;;;;3.05;1.70;;;28.60;96.70;;;;;;5054447;28;20144;-78
2022/08/28 09:29:05;;;;;;;2.90;1.38;;;28.60;96.70;;;;;;5029140;28;20831;-76
2022/08/28 09:31:36;;;;;;;5.35;1.80;;;28.40;96.70;;;;;;5056417;28;20055;-76
2022/08/28 09:34:22;;;;;;;3.72;1.70;;;28.40;96.70;;;;;;5028719;28;20136;-76
2022/08/28 09:36:53;;;;;;;1.73;1.50;;;28.50;96.70;;;;;;5061345;28;20522;-77
2022/08/28 09:39:24;;;;;;;3.97;1.75;;;28.60;96.70;;;;;;5035309;28;20072;-77
2022/08/28 09:44:53;;;;;;;2.67;1.60;;;28.60;96.70;;;;;;5043134;28;20105;-76
2022/08/28 09:47:38;;;;;;;2.10;1.60;;;28.60;96.70;;;;;;5001574;28;20435;-75
2022/08/28 09:50:20;;;;;;;3.97;1.52;;;28.60;96.70;;;;;;5015763;28;20041;-74
2022/08/28 09:52:52;;;;;;;3.15;1.52;;;28.40;96.70;;;;;;5004738;28;20109;-75
2022/08/28 09:55:29;;;;;;;1.90;1.20;;;28.50;96.70;;;;;;4998764;28;20058;-75
2022/08/28 09:57:58;;;;;;;1.88;1.35;;;28.50;96.70;;;;;;4998044;28;20521;-75
2022/08/28 10:00:29;;;;;;;3.65;1.50;;;28.50;96.70;;;;;;5014825;28;20056;-75
2022/08/28 10:03:04;;;;;;;3.08;1.40;;;28.60;96.70;;;;;;5005828;28;20049;-76
2022/08/28 10:05:40;;;;;;;3.75;1.85;;;28.70;96.70;;;;;;5016071;28;20268;-75
2022/08/28 10:08:22;;;;;;;3.97;2.00;;;28.60;96.70;;;;;;5001830;28;20057;-76
2022/08/28 10:10:55;;;;;;;2.33;1.80;;;28.60;96.70;;;;;;5003650;28;20585;-75
2022/08/28 10:13:30;;;;;;;1.73;1.63;;;28.60;96.70;;;;;;5017081;28;20519;-74
2022/08/28 10:16:19;;;;;;;3.47;1.85;;;28.80;96.70;;;;;;5015756;28;20144;-75
2022/08/28 10:18:55;;;;;;;2.35;1.48;;;29.00;96.70;;;;;;5022087;28;20494;-74
2022/08/28 10:21:30;;;;;;;3.13;1.70;;;29.20;96.70;;;;;;5042633;28;20114;-75
2022/08/28 10:24:31;;;;;;;3.10;1.70;;;29.30;96.70;;;;;;5053523;28;20037;-77
2022/08/28 10:27:08;;;;;;;1.95;1.50;;;29.60;96.70;;;;;;5061117;28;20048;-77
2022/08/28 10:29:49;;;;;;;3.08;1.63;;;29.50;96.70;;;;;;5042685;28;20125;-77
2022/08/28 10:32:36;;;;;;;2.28;1.58;;;29.40;96.70;;;;;;5018510;28;20053;-75
2022/08/28 10:35:10;;;;;;;5.47;1.90;;;29.20;96.70;;;;;;5064984;28;20156;-76
2022/08/28 10:37:50;;;;;;;1.85;1.45;;;29.40;96.70;;;;;;5045077;28;20047;-75
2022/08/28 10:40:24;;;;;;;5.60;1.92;;;29.60;96.70;;;;;;5059845;28;20059;-75
2022/08/28 10:43:01;;;;;;;2.50;1.70;;;29.70;96.70;;;;;;5052175;28;20048;-76
2022/08/28 10:45:31;;;;;;;4.32;1.85;;;29.70;96.70;;;;;;5048784;28;20049;-75
2022/08/28 10:48:04;;;;;;;2.05;1.50;;;29.80;96.70;;;;;;5058411;28;20037;-75
2022/08/28 10:50:38;;;;;;;3.03;1.60;;;29.90;96.70;;;;;;5041941;28;20521;-76
2022/08/28 10:53:11;;;;;;;1.63;1.38;;;30.00;96.70;;;;;;5056052;28;20703;-75
2022/08/28 10:55:52;;;;;;;3.05;1.70;;;30.10;96.70;;;;;;5055385;28;20497;-77
2022/08/28 10:58:23;;;;;;;3.15;1.75;;;30.20;96.70;;;;;;5060984;28;20044;-76
2022/08/28 11:00:54;;;;;;;3.40;1.40;;;30.20;96.70;;;;;;5035158;28;20059;-75
2022/08/28 11:03:25;;;;;;;3.00;1.50;;;30.10;96.70;;;;;;5054773;28;20052;-76
2022/08/28 11:06:07;;;;;;;3.15;1.45;;;30.20;96.70;;;;;;5028490;28;20057;-75
2022/08/28 11:08:37;;;;;;;2.83;1.30;;;30.30;96.70;;;;;;5021183;28;20045;-75
2022/08/28 11:11:12;;;;;;;3.17;1.10;;;30.20;96.70;;;;;;5014103;28;20125;-74
2022/08/28 11:13:53;;;;;;;4.25;1.48;;;30.40;96.70;;;;;;5021181;28;20068;-75
2022/08/28 11:16:24;;;;;;;1.58;1.17;;;30.70;96.70;;;;;;5013944;28;20049;-76
2022/08/28 11:19:28;;;;;;;3.00;1.33;;;30.60;96.70;;;;;;4995176;28;20049;-77
2022/08/28 11:22:03;;;;;;;1.80;1.17;;;30.60;96.70;;;;;;4998742;28;20060;-77
2022/08/28 11:24:47;;;;;;;3.63;1.40;;;30.30;96.70;;;;;;5020896;28;20133;-76
2022/08/28 11:27:30;;;;;;;1.60;1.48;;;30.30;96.70;;;;;;5018084;28;20050;-76
2022/08/28 11:30:31;;;;;;;2.25;1.30;;;30.40;96.70;;;;;;5012714;28;20038;-76
2022/08/28 11:33:08;;;;;;;4.30;1.48;;;30.50;96.70;;;;;;5018248;28;20049;-74
2022/08/28 11:35:47;;;;;;;5.25;3.10;;;30.40;96.70;;;;;;5017378;28;20042;-77
2022/08/28 11:39:09;;;;;;;3.67;1.55;;;30.20;96.70;;;;;;5013753;28;20064;-76
2022/08/28 11:41:39;;;;;;;1.60;1.40;;;30.00;96.70;;;;;;4941918;28;20051;-76
2022/08/28 11:44:43;;;;;;;3.20;1.63;;;29.90;96.70;;;;;;5009589;28;20141;-74
2022/08/28 11:47:35;;;;;;;1.85;1.60;;;29.70;96.70;;;;;;5019986;28;20176;-75
2022/08/28 11:50:12;;;;;;;2.90;1.50;;;29.70;96.70;;;;;;5021568;28;20151;-75
2022/08/28 11:53:00;;;;;;;2.17;1.27;;;29.80;96.70;;;;;;4999765;28;20045;-76
2022/08/28 11:55:44;;;;;;;3.35;1.45;;;29.90;96.70;;;;;;4997299;28;20057;-75
2022/08/28 11:58:21;;;;;;;2.00;1.27;;;30.00;96.70;;;;;;5019985;28;20045;-73
2022/08/28 12:00:56;;;;;;;2.22;1.48;;;30.00;96.70;;;;;;5003028;28;20053;-75
2022/08/28 12:03:35;;;;;;;2.38;1.40;;;30.00;96.70;;;;;;5012806;28;20577;-76
2022/08/28 12:06:04;;;;;;;3.05;1.60;;;30.00;96.70;;;;;;5004992;28;20084;-76
2022/08/28 12:09:02;;;;;;;4.30;1.23;;;30.00;96.70;;;;;;5023979;28;20044;-75
2022/08/28 12:12:08;;;;;;;2.00;1.60;;;30.00;96.70;;;;;;5020746;28;20065;-76
2022/08/28 12:15:10;;;;;;;4.38;1.58;;;30.00;96.70;;;;;;5022178;28;20124;-75
2022/08/28 12:17:51;;;;;;;2.90;1.42;;;30.00;96.70;;;;;;5020259;28;20041;-76
2022/08/28 12:20:33;;;;;;;2.42;1.50;;;30.00;96.70;;;;;;5000984;28;20447;-75
2022/08/28 12:23:23;;;;;;;3.58;1.33;;;30.00;96.70;;;;;;5014700;28;20483;-75
2022/08/28 12:25:59;;;;;;;1.77;1.33;;;30.00;96.70;;;;;;5016368;28;20141;-75
2022/08/28 12:28:30;;;;;;;2.42;1.70;;;30.10;96.70;;;;;;5019674;28;20057;-76
2022/08/28 12:32:10;;;;;;;1.52;1.33;;;30.00;96.70;;;;;;5018273;28;20684;-75
2022/08/28 12:34:25;;;;;;;4.88;1.30;;;30.10;96.70;;;;;;5020836;28;20069;-73
2022/08/28 12:36:57;;;;;;;2.20;1.00;;;29.90;96.70;;;;;;5019788;28;20038;-73
2022/08/28 12:39:27;;;;;;;2.10;0.70;;;29.50;96.70;;;;;;5018359;28;20061;-74
2022/08/28 12:41:56;;;;;;;2.67;0.95;;;29.30;96.70;;;;;;5022126;28;20049;-73
2022/08/28 12:44:27;;;;;;;1.98;1.08;;;29.20;96.70;;;;;;5021142;28;20348;-74
2022/08/28 12:46:57;;;;;;;2.50;0.77;;;29.20;96.70;;;;;;5019196;28;20042;-74
2022/08/28 12:49:30;;;;;;;2.20;0.77;;;29.30;96.70;;;;;;5018346;28;20046;-74
2022/08/28 12:52:15;;;;;;;1.33;0.80;;;29.40;96.70;;;;;;5012988;28;20959;-74
2022/08/28 12:54:44;;;;;;;3.42;1.10;;;29.60;96.70;;;;;;5019410;28;20103;-73
2022/08/28 12:57:16;;;;;;;2.28;0.68;;;29.60;96.70;;;;;;5016909;28;20029;-73
2022/08/28 12:59:46;;;;;;;13.88;1.25;;;29.70;96.70;;;;;;5005404;28;20049;-73
2022/08/28 13:02:25;;;;;;;1.05;0.30;;;29.70;96.70;;;;;;5021440;28;20537;-75
2022/08/28 13:04:58;;;;;;;1.30;0.73;;;29.80;96.70;;;;;;5013857;28;20733;-75
2022/08/28 13:07:30;;;;;;;0.75;0.40;;;29.90;96.70;;;;;;5056887;28;20059;-74
2022/08/28 13:10:03;;;;;;;3.17;0.52;;;30.00;96.70;;;;;;5042011;28;20056;-74
2022/08/28 13:12:35;;;;;;;2.53;0.50;;;30.10;96.70;;;;;;5049940;28;20518;-75
2022/08/28 13:15:44;;;;;;;0.88;0.35;;;30.20;96.70;;;;;;5025025;28;20042;-75
2022/08/28 13:18:38;;;;;;;0.40;0.30;;;30.20;96.70;;;;;;5058673;28;20098;-75
2022/08/28 13:21:30;;;;;;;2.55;0.35;;;30.30;96.70;;;;;;5037649;28;20135;-75
2022/08/28 13:24:44;;;;;;;0.50;0.30;;;30.40;96.70;;;;;;5028806;28;20056;-75